Tiempo atmosférico en la estación meteorológica de Zumaia, Gipuzkoa (28 m.)



Fecha
DESCASC
Temp. máxima en grados centígrados (hora)
DESCASC
Temp. mínima en grados centígrados (hora)
DESCASC
Temp. media en grados centígrados
DESCASC
Racha de viento máxima en m/sg (hora)
DESCASC
Velocidad máxima media en intervalos de 10 minutos(hora)
DESCASC
Precipitaciones diarias en mm
DESCASC
Precipitaciones de 00:00 a 06:00 en mm
DESCASC
Precipitaciones de 06:00 a 12:00 en mm
DESCASC
Precipitaciones de 12:00 a 18:00 en mm
DESCASC
Precipitaciones de 18:00 a 24:00 en mm
DESCASC
22-11-2020 17.9 (14:40) 5.4 (01:30) 11.6 5 (00:10) 4.17 (00:10) 0 0 0 0 0
21-11-2020 14.6 (14:10) 4.3 (07:50) 9.5 5.28 (23:40) 4.44 (23:40) 0 0 0 0 0
20-11-2020 -- (--) -- (--) -- 6.94 (13:00) 3.89 (16:30) 0.7 0 0.7 0 0
19-11-2020 -- (--) -- (--) -- 10.83 (08:20) 8.89 (08:20) 2.1 0 1.9 0.2 0
18-11-2020 -- (--) -- (--) -- 16.67 (06:00) 10.83 (02:10) 0 0 0 0 0
17-11-2020 19 (23:30) 8.3 (00:00) 13.7 14.72 (23:20) 9.17 (23:50) 0 0 0 0 0
16-11-2020 18.1 (12:50) 9.6 (00:00) 13.9 12.22 (02:40) 7.5 (02:50) 1.3 1.2 0.1 0 0
15-11-2020 23.6 (14:20) 13.5 (00:00) 18.6 19.17 (10:10) 11.39 (09:20) 2.4 0 0 0 2.4
14-11-2020 21.2 (15:50) 15.4 (00:00) 18.3 20.28 (10:30) 11.94 (10:40) 0 0 0 0 0
13-11-2020 22.7 (14:10) 15.4 (00:00) 19.1 14.72 (06:30) 9.44 (06:20) 0 0 0 0 0
12-11-2020 20.6 (11:20) 13.5 (00:00) 17.1 11.39 (22:00) 6.39 (21:40) 0 0 0 0 0
11-11-2020 22.3 (14:30) 10.4 (00:00) 16.3 13.89 (11:40) 8.89 (11:10) 0 0 0 0 0
10-11-2020 17.1 (14:20) 10.9 (00:00) 14 8.61 (06:00) 3.61 (01:50) 15.5 0 15.4 0 0.1
09-11-2020 23.2 (13:20) 11.9 (00:00) 17.6 16.39 (09:50) 8.89 (09:40) 0 0 0 0 0
08-11-2020 22.5 (12:50) 17.2 (00:00) 19.9 15 (10:40) 9.17 (06:10) 0 0 0 0 0
07-11-2020 21.7 (04:00) 16.3 (00:00) 19 19.17 (00:40) 8.61 (01:00) 3.3 0 3.2 0 0.1
06-11-2020 22.8 (14:20) 11.7 (00:00) 17.2 20.83 (23:30) 11.67 (22:00) 0 0 0 0 0
05-11-2020 17.5 (15:00) 7.2 (00:00) 12.3 6.67 (13:30) 4.72 (13:20) 0.1 0 0 0 0.1
04-11-2020 14.6 (12:00) 8.9 (00:00) 11.8 10.28 (22:00) 5.28 (20:10) 4.8 4.1 0.6 0 0.1
03-11-2020 14.4 (17:10) 9.8 (00:00) 12.1 14.44 (16:00) 10.83 (16:00) 10.7 8.4 1 0.8 0.5
02-11-2020 26.4 (13:20) 14 (00:00) 20.2 23.61 (15:30) 16.39 (15:30) 0.3 0 0 0.2 0.1
01-11-2020 27 (14:30) 19.3 (00:00) 23.1 11.94 (20:30) 7.78 (20:20) 0 0 0 0 0
31-10-2020 26.9 (15:30) 11.3 (00:00) 19.1 15.83 (12:20) 7.78 (11:40) 0.1 0.1 0 0 0
30-10-2020 19.4 (14:30) 9.9 (00:00) 14.6 5.28 (02:30) 3.61 (03:20) 0 0 0 0 0
29-10-2020 20.4 (14:50) 11.3 (00:00) 15.8 6.67 (15:50) 3.89 (08:30) 0 0 0 0 0
28-10-2020 18.1 (12:50) 11.7 (00:00) 14.9 9.44 (06:20) 5.56 (06:10) 0.1 0 0 0.1 0

Gráficas

Temp. máximas Temp. mínimas Temp. medias Precipitaciones Rachas de viento máximas Velocidades máximas media en intervalos de 10 minutos

Datos horarios

Fecha y hora oficial Temperatura (ºC) Velocidad del viento (km/h) Dirección del viento Racha (km/h) Dirección de racha Precipitación (mm) Presión (hPa) Tendencia (hPa) Humedad (%)
2020-11-26 23:00:00 17.8 10 Sudeste 48 Sudeste 0 -- -- 59
2020-11-26 22:00:00 16.7 12 Sudeste 26 Sudeste 0 -- -- 62
2020-11-26 21:00:00 15.4 5 Sudeste 8 Sudeste 0 -- -- 69
2020-11-26 20:00:00 15.8 3 Sudoeste 13 Sudeste 0 -- -- 66
2020-11-26 19:00:00 16.1 9 Sur 18 Sudeste 0 -- -- 67
2020-11-26 18:00:00 16.5 4 Sudoeste 9 Sudeste 0 -- -- 65
2020-11-26 17:00:00 17.4 0 Calma 9 Nordeste 0 -- -- 63
2020-11-26 16:00:00 18.5 4 Nordeste 17 Sudoeste 0 -- -- 61
2020-11-26 15:00:00 19.8 9 Sur 15 Sudoeste 0 -- -- 55
2020-11-26 14:00:00 19.4 7 Este 18 Sudeste 0 -- -- 57
2020-11-26 13:00:00 19.3 3 Este 38 Sur 0 -- -- 55
2020-11-26 12:00:00 19.8 18 Sur 36 Sudeste 0 -- -- 51
2020-11-26 11:00:00 20.5 16 Sudeste 35 Sudeste 0 -- -- 52
2020-11-26 10:00:00 17 12 Sudeste 27 Sudeste 0 -- -- 59
2020-11-26 09:00:00 15.8 6 Sudeste 23 Sur 0 -- -- 60
2020-11-26 08:00:00 15.9 17 Sudeste 29 Sudeste 0 -- -- 60
2020-11-26 07:00:00 15.4 7 Sudeste 35 Sur 0 -- -- 61
2020-11-26 06:00:00 16 22 Sur 39 Sudeste 0 -- -- 60
2020-11-26 05:00:00 15.9 22 Sudeste 38 Sudeste 0 -- -- 61
2020-11-26 04:00:00 15.1 15 Sudeste 23 Sudeste 0 -- -- 66
2020-11-26 03:00:00 12.9 10 Sur 16 Sudeste 0 -- -- 70
2020-11-26 02:00:00 12.7 2 Sudeste 19 Sur 0 -- -- 70
2020-11-26 01:00:00 11.8 8 Sur 16 Sudoeste 0 -- -- 70
2020-11-26 00:00:00 12.6 7 Sur 13 Sur 0 -- -- 66
2020-11-25 23:00:00 13.9 5 Sur 16 Sudeste 0 -- -- 61
2020-11-25 22:00:00 14 10 Este 22 Sudeste 0 -- -- 59
2020-11-25 21:00:00 14.1 13 Sudeste 27 Sur 0 -- -- 59
2020-11-25 20:00:00 13.7 3 Sur 10 Este 0 -- -- 57
2020-11-25 19:00:00 14.3 2 Este 17 Sudeste 0 -- -- 57
2020-11-25 18:00:00 15.9 8 Sur 23 Sudoeste 0 -- -- 54
2020-11-25 17:00:00 17 8 Sur 30 Sur 0 -- -- 50
2020-11-25 16:00:00 17.2 12 Sur 27 Sur 0 -- -- 50
2020-11-25 15:00:00 18.4 14 Sur 41 Sudoeste 0 -- -- 49
2020-11-25 14:00:00 18.2 20 Sur 40 Sudoeste 0 -- -- 51
2020-11-25 13:00:00 18 18 Sur 35 Sur 0 -- -- 54
2020-11-25 12:00:00 17 17 Sur 35 Sur 0 -- -- 57
2020-11-25 11:00:00 15.9 12 Sur 39 Sur 0 -- -- 61
2020-11-25 10:00:00 14.9 26 Sur 42 Sur 0 -- -- 63
2020-11-25 09:00:00 13.3 13 Sur 30 Sur 0 -- -- 66
2020-11-25 08:00:00 12.7 17 Sur 32 Sur 0 -- -- 66
2020-11-25 07:00:00 13.1 21 Sur 35 Sur 0 -- -- 65
2020-11-25 06:00:00 13.3 16 Sur 34 Sur 0 -- -- 63
2020-11-25 05:00:00 13.4 18 Sur 45 Sur 0 -- -- 62
2020-11-25 04:00:00 13.4 19 Sur 69 Sur 0 -- -- 60
2020-11-25 03:00:00 13.8 24 Sur 46 Sur 0 -- -- 56
2020-11-25 02:00:00 14.1 22 Sur 45 Sur 0 -- -- 51
2020-11-25 01:00:00 14.6 30 Sur 43 Sur 0 -- -- 49
2020-11-25 00:00:00 14.3 18 Sur 39 Sudoeste 0 -- -- 49
2020-11-24 23:00:00 14.6 25 Sur 45 Sudoeste 0 -- -- 49
2020-11-24 22:00:00 14.3 21 Sur 39 Sur 0 -- -- 50
2020-11-24 21:00:00 13.7 11 Sur 25 Sudeste 0 -- -- 51
2020-11-24 20:00:00 14.2 15 Sur 31 Sur 0 -- -- 51
2020-11-24 19:00:00 13.9 14 Sudeste 19 Sudeste 0 -- -- 51
2020-11-24 18:00:00 15.4 8 Sudeste 17 Sur 0 -- -- 48
2020-11-24 17:00:00 17 10 Sur 17 Sur 0 -- -- 46
2020-11-24 16:00:00 18.3 9 Sur 23 Sur 0 -- -- 43
2020-11-24 15:00:00 19.4 14 Sur 27 Sur 0 -- -- 42
2020-11-24 14:00:00 18.2 15 Sur 35 Sur 0 -- -- 42
2020-11-24 13:00:00 18 23 Sur 36 Sur 0 -- -- 42
2020-11-24 12:00:00 16.7 19 Sur 42 Sur 0 -- -- 43
2020-11-24 11:00:00 16.7 30 Sur 55 Sur 0 -- -- 42
2020-11-24 10:00:00 15.7 33 Sur 54 Sur 0 -- -- 44
2020-11-24 09:00:00 13.8 20 Sur 40 Sur 0 -- -- 47
2020-11-24 08:00:00 13.2 16 Sur 36 Sur 0 -- -- 48
2020-11-24 07:00:00 12.2 9 Sur 34 Sur 0 -- -- 51
2020-11-24 06:00:00 11.1 16 Sur 23 Sudeste 0 -- -- 64
2020-11-24 05:00:00 8.9 10 Sur 16 Sudeste 0 -- -- 85
2020-11-24 04:00:00 7.2 10 Sur 14 Sur 0 -- -- 95
2020-11-24 03:00:00 7.4 8 Sur 13 Sur 0 -- -- 95
2020-11-24 02:00:00 7.6 8 Sur 15 Sur 0 -- -- 95
2020-11-24 01:00:00 7.9 11 Sur 17 Sur 0 -- -- 95
2020-11-24 00:00:00 8.2 14 Sur 17 Sur 0 -- -- 95
2020-11-23 23:00:00 8.3 13 Sur 17 Sur 0 -- -- 95
2020-11-23 22:00:00 8.8 13 Sur 16 Sur 0 -- -- 95
2020-11-23 21:00:00 9.2 13 Sur 16 Sur 0 -- -- 93
2020-11-23 20:00:00 10.1 13 Sur 14 Sur 0 -- -- 91
2020-11-23 19:00:00 11.2 10 Sur 13 Sur 0 -- -- 88
2020-11-23 18:00:00 12.7 4 Sur 10 Sudeste 0 -- -- 80
2020-11-23 17:00:00 14 5 Este 13 Nordeste 0 -- -- 74
2020-11-23 16:00:00 14.2 11 Nordeste 15 Nordeste 0 -- -- 73
2020-11-23 15:00:00 16.1 9 Nordeste 13 Nordeste 0 -- -- 67
2020-11-23 14:00:00 16 7 Norte 13 Norte 0 -- -- 67
2020-11-23 13:00:00 15.5 0 Calma 5 Sur 0 -- -- 66
2020-11-23 12:00:00 15.1 6 Sur 12 Sur 0 -- -- 70
2020-11-23 11:00:00 13.1 10 Sur 15 Sur 0 -- -- 79
2020-11-23 10:00:00 9.5 13 Sur 17 Sur 0 -- -- 94
2020-11-23 09:00:00 7.1 15 Sur 18 Sur 0 -- -- 96
2020-11-23 08:00:00 6.1 15 Sur 19 Sur 0 -- -- 95
2020-11-23 07:00:00 6.4 15 Sur 19 Sur 0 -- -- 95
2020-11-23 06:00:00 7.1 14 Sur 17 Sur 0 -- -- 94
2020-11-23 05:00:00 7.6 12 Sur 15 Sur 0 -- -- 95
2020-11-23 04:00:00 7.6 13 Sur 17 Sur 0 -- -- 94
2020-11-23 03:00:00 7.7 13 Sur 18 Sudoeste 0 -- -- 93
2020-11-23 02:00:00 8 14 Sur 18 Sudoeste 0 -- -- 94
2020-11-23 01:00:00 7.8 14 Sur 17 Sudoeste 0 -- -- 94
2020-11-23 00:00:00 7.6 14 Sur 18 Sur 0 -- -- 94
2020-11-22 23:00:00 7.3 14 Sur 17 Sur 0 -- -- 93
2020-11-22 22:00:00 7.8 14 Sur 17 Sur 0 -- -- 92
2020-11-22 21:00:00 8 15 Sur 17 Sur 0 -- -- 89
2020-11-22 20:00:00 8.9 13 Sur 16 Sur 0 -- -- 86
2020-11-22 19:00:00 10.4 11 Sur 14 Sur 0 -- -- 77
2020-11-22 18:00:00 12.1 7 Sur 9 Sur 0 -- -- 69
2020-11-22 17:00:00 15.3 0 Calma 6 Nordeste 0 -- -- 59
2020-11-22 16:00:00 15.2 4 Norte 13 Norte 0 -- -- 58
2020-11-22 15:00:00 17.4 9 Noroeste 17 Noroeste 0 -- -- 53
2020-11-22 14:00:00 16.2 9 Norte 14 Noroeste 0 -- -- 57
2020-11-22 13:00:00 15.9 4 Noroeste 11 Noroeste 0 -- -- 54
2020-11-22 12:00:00 14.8 7 Noroeste 10 Noroeste 0 -- -- 60
2020-11-22 11:00:00 14.2 6 Sur 12 Sudoeste 0 -- -- 59
2020-11-22 10:00:00 10.8 3 Sur 10 Sur 0 -- -- 69
2020-11-22 09:00:00 7.9 7 Sur 12 Sur 0 -- -- 76
2020-11-22 08:00:00 6.1 8 Sur 12 Sur 0 -- -- 79
2020-11-22 07:00:00 6.3 7 Sur 12 Sudoeste 0 -- -- 80
2020-11-22 06:00:00 7.3 7 Sur 12 Sudeste 0 -- -- 76
2020-11-22 05:00:00 6.5 7 Sudeste 13 Sur 0 -- -- 82
2020-11-22 04:00:00 6 8 Sudeste 12 Sur 0 -- -- 91
2020-11-22 03:00:00 5.8 10 Sur 15 Sur 0 -- -- 94
2020-11-22 02:00:00 5.6 12 Sur 17 Sur 0 -- -- 95
2020-11-22 01:00:00 5.9 12 Sur 18 Sur 0 -- -- 95
2020-11-22 00:00:00 5.9 15 Sur 19 Sur 0 -- -- 95
2020-11-21 23:00:00 5.8 15 Sur 17 Sur 0 -- -- 92
2020-11-21 22:00:00 7 13 Sur 17 Sur 0 -- -- 92
2020-11-21 21:00:00 7 13 Sur 18 Sudoeste 0 -- -- 90
2020-11-21 20:00:00 7.4 13 Sur 15 Sur 0 -- -- 85
2020-11-21 19:00:00 8.9 11 Sur 15 Sur 0 -- -- 77
2020-11-21 18:00:00 10.1 9 Sur 12 Sudoeste 0 -- -- 69
2020-11-21 17:00:00 12.9 6 Este 11 Este 0 -- -- 61
2020-11-21 16:00:00 12.6 3 Noroeste 11 Norte 0 -- -- 58
2020-11-21 15:00:00 14 4 Noroeste 10 Noroeste 0 -- -- 56
2020-11-21 14:00:00 14 5 Norte 13 Nordeste 0 -- -- 58
2020-11-21 13:00:00 13.5 10 Nordeste 18 Nordeste 0 -- -- 60
2020-11-21 12:00:00 13.2 9 Este 16 Sur 0 -- -- 69
2020-11-21 11:00:00 10.5 7 Sur 14 Sur 0 -- -- 91
2020-11-21 10:00:00 7.9 12 Sur 17 Sudoeste 0 -- -- 98
2020-11-21 09:00:00 5.5 13 Sur 18 Sur 0 -- -- 98
2020-11-21 08:00:00 4.6 12 Sur 16 Sur 0 -- -- 98
2020-11-21 07:00:00 4.7 13 Sur 17 Sur 0 -- -- 97
2020-11-21 06:00:00 5.2 13 Sur 17 Sur 0 -- -- 97
2020-11-21 05:00:00 5.6 13 Sur 17 Sur 0 -- -- 97
2020-11-21 04:00:00 5.6 12 Sur 15 Sur 0 -- -- 96
2020-11-21 03:00:00 6.3 13 Sur 16 Sur 0 -- -- 96
2020-11-21 02:00:00 6.4 11 Sur 14 Sur 0 -- -- 95
2020-11-21 01:00:00 7.3 11 Sur 14 Sur 0 -- -- 94
2020-11-21 00:00:00 8 11 Sur 15 Sur 0 -- -- 93
2020-11-20 23:00:00 7.9 11 Sur 15 Sur 0 -- -- 91
2020-11-20 22:00:00 8.6 12 Sur 15 Sur 0 -- -- 89
2020-11-20 21:00:00 9.2 9 Sur 12 Sur 0 -- -- 85
2020-11-20 20:00:00 10.2 10 Sur 13 Sur 0 -- -- 77
2020-11-20 19:00:00 11.4 0 Calma 20 Norte 0 -- -- 70
2020-11-20 18:00:00 11.8 5 Este 18 Este 0 -- -- 68
2020-11-20 17:00:00 12.8 11 Nordeste 24 Nordeste 0 -- -- 67
2020-11-20 16:00:00 13.5 11 Nordeste 21 Nordeste 0 -- -- 61
2020-11-20 15:00:00 14.6 10 Nordeste 22 Nordeste 0 -- -- 60
2020-11-20 14:00:00 15 9 Nordeste 23 Nordeste 0 -- -- 62
2020-11-20 13:00:00 15 11 Nordeste 25 Nordeste 0 -- -- 66
2020-11-20 12:00:00 15.9 8 Este 18 Este 0.1 -- -- 71
2020-11-20 11:00:00 -- 7 Sudeste 20 Este 0 -- -- --
2020-11-20 10:00:00 -- 6 Sudeste 12 Sudeste 0 -- -- --
2020-11-20 09:00:00 -- 10 Sur 13 Sur 0 -- -- --
2020-11-20 08:00:00 -- 6 Sur 14 Sudoeste 0.6 -- -- --
2020-11-20 07:00:00 -- 6 Sudoeste 14 Oeste 0 -- -- --
2020-11-20 06:00:00 -- 7 Sudoeste 11 Sur 0 -- -- --
2020-11-20 05:00:00 -- 8 Sudoeste 12 Sur 0 -- -- --
2020-11-20 04:00:00 -- 9 Sur 12 Sur 0 -- -- --
2020-11-20 03:00:00 -- 7 Sur 12 Sur 0 -- -- --
2020-11-20 02:00:00 -- 10 Sur 14 Sur 0 -- -- --
2020-11-20 01:00:00 -- 10 Sur 14 Sur 0 -- -- --
2020-11-20 00:00:00 -- 8 Sur 27 Nordeste 0 -- -- --
2020-11-19 23:00:00 -- 5 Sudoeste 19 Oeste 0 -- -- --
2020-11-19 22:00:00 -- 8 Sur 10 Sur 0 -- -- --
2020-11-19 21:00:00 -- 7 Sur 10 Sur 0 -- -- --
2020-11-19 20:00:00 -- 8 Sur 12 Sur 0 -- -- --
2020-11-19 19:00:00 -- 8 Sur 17 Noroeste 0 -- -- --
2020-11-19 18:00:00 -- 11 Norte 25 Norte 0 -- -- --
2020-11-19 17:00:00 -- 9 Nordeste 33 Norte 0 -- -- --
2020-11-19 16:00:00 -- 19 Norte 39 Noroeste 0 -- -- --
2020-11-19 15:00:00 -- 26 Noroeste 36 Noroeste 0 -- -- --
2020-11-19 14:00:00 -- 8 Noroeste 26 Noroeste 0 -- -- --
2020-11-19 13:00:00 -- 14 Norte 31 Noroeste 0.2 -- -- --
2020-11-19 12:00:00 -- 13 Noroeste 24 Noroeste 0.2 -- -- --
2020-11-19 11:00:00 -- 8 Noroeste 24 Noroeste 0.3 -- -- --
2020-11-19 10:00:00 -- 10 Noroeste 36 Norte 0.4 -- -- --
2020-11-19 09:00:00 -- 28 Norte 39 Noroeste 0.2 -- -- --
2020-11-19 08:00:00 -- 30 Norte 37 Noroeste 0.8 -- -- --
2020-11-19 07:00:00 -- 12 Noroeste 19 Noroeste 0 -- -- --
2020-11-19 06:00:00 -- 10 Oeste 32 Noroeste 0 -- -- --
2020-11-19 05:00:00 -- 6 Sudoeste 17 Oeste 0 -- -- --
2020-11-19 04:00:00 -- 10 Sur 15 Sur 0 -- -- --
2020-11-19 03:00:00 -- 13 Sur 18 Sudoeste 0 -- -- --
2020-11-19 02:00:00 -- 12 Sur 19 Sur 0 -- -- --
2020-11-19 01:00:00 -- 16 Sur 20 Sur 0 -- -- --
2020-11-19 00:00:00 -- 15 Sur 18 Sur 0 -- -- --
2020-11-18 23:00:00 -- 14 Sur 16 Sur 0 -- -- --
2020-11-18 22:00:00 -- 12 Sur 16 Sur 0 -- -- --
2020-11-18 21:00:00 -- 13 Sur 16 Sudoeste 0 -- -- --
2020-11-18 20:00:00 -- 10 Sur 14 Sur 0 -- -- --
2020-11-18 19:00:00 -- 9 Sur 12 Sur 0 -- -- --
2020-11-18 18:00:00 -- 0 Calma -- -- 0 -- -- --
2020-11-18 17:00:00 -- 0 Calma 10 Este 0 -- -- --
2020-11-18 16:00:00 20.7 0 Calma 16 Nordeste 0 -- -- 55
2020-11-18 15:00:00 21.3 11 Nordeste 21 Nordeste 0 -- -- 55
2020-11-18 14:00:00 26 10 Sur 21 Sur 0 -- -- 43
2020-11-18 13:00:00 24.5 12 Sur 27 Sur 0 -- -- 45
2020-11-18 12:00:00 23.2 18 Sur 32 Sur 0 -- -- 46
2020-11-18 11:00:00 21.9 20 Sur 36 Sur 0 -- -- 47
2020-11-18 10:00:00 20.7 23 Sur 37 Sur 0 -- -- 48
2020-11-18 09:00:00 19.5 27 Sur 51 Sur 0 -- -- 48
2020-11-18 08:00:00 18.3 32 Sur 59 Sur 0 -- -- 48
2020-11-18 07:00:00 18.6 33 Sur 59 Sur 0 -- -- 47
2020-11-18 06:00:00 19.3 39 Sur 60 Sur 0 -- -- 45
2020-11-18 05:00:00 18.6 37 Sur 59 Sur 0 -- -- 46
2020-11-18 04:00:00 18.7 38 Sur 55 Sur 0 -- -- 45
2020-11-18 03:00:00 18.6 30 Sur 59 Sur 0 -- -- 44
2020-11-18 02:00:00 18.6 38 Sur 58 Sur 0 -- -- 42
2020-11-18 01:00:00 18.8 34 Sur 52 Sur 0 -- -- 41
2020-11-18 00:00:00 18.8 30 Sur 53 Sur 0 -- -- 44
2020-11-17 23:00:00 18.7 28 Sur 48 Sur 0 -- -- 46
2020-11-17 22:00:00 18.3 22 Sur 39 Sur 0 -- -- 50
2020-11-17 21:00:00 17.7 20 Sur 36 Sur 0 -- -- 55
2020-11-17 20:00:00 15 11 Sur 20 Sur 0 -- -- 72
2020-11-17 19:00:00 13.5 8 Sur 11 Sur 0 -- -- 87
2020-11-17 18:00:00 15 0 Calma -- -- 0 -- -- 78
2020-11-17 17:00:00 16.7 0 Calma 12 Nordeste 0 -- -- 74
2020-11-17 16:00:00 16.4 9 Nordeste 16 Este 0 -- -- 71
2020-11-17 15:00:00 17.3 9 Nordeste 18 Nordeste 0 -- -- 70
2020-11-17 14:00:00 16.6 10 Nordeste 21 Nordeste 0 -- -- 70
2020-11-17 13:00:00 16.1 10 Nordeste 15 Nordeste 0 -- -- 71
2020-11-17 12:00:00 14.7 0 Calma 8 Nordeste 0 -- -- 72
2020-11-17 11:00:00 14.5 0 Calma 14 Sur 0 -- -- 72
2020-11-17 10:00:00 11.6 13 Sur 18 Sur 0 -- -- 91
2020-11-17 09:00:00 9 13 Sur 17 Sur 0 -- -- 95
2020-11-17 08:00:00 8.4 14 Sur 17 Sur 0 -- -- 95
2020-11-17 07:00:00 8.7 12 Sur 18 Sur 0 -- -- 95
2020-11-17 06:00:00 8.7 14 Sur 18 Sur 0 -- -- 95
2020-11-17 05:00:00 8.9 12 Sur 16 Sur 0 -- -- 95
2020-11-17 04:00:00 8.9 12 Sur 17 Sur 0 -- -- 95
2020-11-17 03:00:00 9.1 13 Sur 16 Sur 0 -- -- 95
2020-11-17 02:00:00 9.4 13 Sur 16 Sur 0 -- -- 95
2020-11-17 01:00:00 9.3 13 Sur 17 Sur 0 -- -- 95
2020-11-17 00:00:00 9.6 13 Sur 16 Sur 0 -- -- 95
2020-11-16 23:00:00 9.8 13 Sur 15 Sur 0 -- -- 95
2020-11-16 22:00:00 10.3 13 Sur 15 Sur 0 -- -- 94
2020-11-16 21:00:00 10.8 11 Sur 14 Sur 0 -- -- 93
2020-11-16 20:00:00 11.6 10 Sur 13 Sur 0 -- -- 92
2020-11-16 19:00:00 12.4 8 Sur 10 Sur 0 -- -- 88
2020-11-16 18:00:00 13.8 0 Calma 8 Este 0 -- -- 80
2020-11-16 17:00:00 15.6 6 Este 12 Norte 0 -- -- 77
2020-11-16 16:00:00 16.5 0 Calma 8 Norte 0 -- -- 74
2020-11-16 15:00:00 17.5 0 Calma 12 Norte 0 -- -- 74
2020-11-16 14:00:00 17.5 8 Norte 13 Norte 0 -- -- 73
2020-11-16 13:00:00 17.5 7 Noroeste 12 Noroeste 0 -- -- 78
2020-11-16 12:00:00 15.6 6 Sur 11 Sur 0 -- -- 93
2020-11-16 11:00:00 14 7 Sur 10 Sur 0.1 -- -- 97
2020-11-16 10:00:00 13.6 5 Sur 11 Sur 0 -- -- 97
2020-11-16 09:00:00 12.7 7 Sur 11 Sur 0 -- -- 98
2020-11-16 08:00:00 12.5 9 Sur 10 Sur 0 -- -- 98
2020-11-16 07:00:00 12.5 8 Sur 17 Sur 0 -- -- 97
2020-11-16 06:00:00 12.6 10 Sur 15 Oeste 0.1 -- -- 97
2020-11-16 05:00:00 12.9 3 Oeste 31 Noroeste 0.2 -- -- 97
2020-11-16 04:00:00 12.9 8 Sur 31 Noroeste 0.1 -- -- 97
2020-11-16 03:00:00 13.4 23 Noroeste 44 Noroeste 0.8 -- -- 97
2020-11-16 02:00:00 14 24 Noroeste 42 Norte 0 -- -- 94
2020-11-16 01:00:00 13.7 5 Sur 10 Sur 0 -- -- 94
2020-11-16 00:00:00 13.6 5 Sur 12 Sur 0 -- -- 95
2020-11-15 23:00:00 14 2 Sur 19 Oeste 0 -- -- 94
2020-11-15 22:00:00 14 3 Sudoeste 27 Noroeste 0 -- -- 97
2020-11-15 21:00:00 14.4 13 Noroeste 36 Noroeste 0.2 -- -- 98
2020-11-15 20:00:00 14.9 26 Noroeste 41 Noroeste 1.7 -- -- 97
2020-11-15 19:00:00 15.5 4 Noroeste 18 Noroeste 0.5 -- -- 95
2020-11-15 18:00:00 15.6 13 Noroeste 39 Noroeste 0 -- -- 95
2020-11-15 17:00:00 15.8 28 Noroeste 49 Noroeste 0 -- -- 95
2020-11-15 16:00:00 16.5 25 Noroeste 46 Noroeste 0 -- -- 91
2020-11-15 15:00:00 17.6 31 Noroeste 58 Noroeste 0 -- -- 81
2020-11-15 14:00:00 23 15 Sudoeste 55 Sudoeste 0 -- -- 56
2020-11-15 13:00:00 21.6 24 Sur 60 Sudoeste 0 -- -- 58
2020-11-15 12:00:00 21.2 32 Sur 54 Sudoeste 0 -- -- 58
2020-11-15 11:00:00 21.1 34 Sur 69 Sur 0 -- -- 57
2020-11-15 10:00:00 20.9 38 Sur 65 Sudoeste 0 -- -- 57
2020-11-15 09:00:00 20.4 31 Sur 60 Sudoeste 0 -- -- 58
2020-11-15 08:00:00 20.1 26 Sur 57 Sudoeste 0 -- -- 58
2020-11-15 07:00:00 19.5 27 Sur 60 Sur 0 -- -- 58
2020-11-15 06:00:00 19.6 38 Sur 66 Sudoeste 0 -- -- 58
2020-11-15 05:00:00 19.1 25 Sur 52 Sur 0 -- -- 59
2020-11-15 04:00:00 19.3 29 Sur 63 Sur 0 -- -- 58
2020-11-15 03:00:00 19.5 37 Sur 64 Sur 0 -- -- 59
2020-11-15 02:00:00 19.2 32 Sur 53 Sur 0 -- -- 59
2020-11-15 01:00:00 18.8 26 Sur 47 Sur 0 -- -- 58
2020-11-15 00:00:00 18.1 32 Sur 50 Sur 0 -- -- 59
2020-11-14 23:00:00 17.7 29 Sur 49 Sur 0 -- -- 60
2020-11-14 22:00:00 17.8 32 Sur 54 Sur 0 -- -- 59
2020-11-14 21:00:00 17.5 33 Sur 55 Sur 0 -- -- 59
2020-11-14 20:00:00 17.7 28 Sur 44 Sur 0 -- -- 58
2020-11-14 19:00:00 17.8 28 Sur 43 Sur 0 -- -- 58
2020-11-14 18:00:00 18.2 5 Sudeste 36 Sudeste 0 -- -- 56
2020-11-14 17:00:00 19.3 24 Sur 40 Sudeste 0 -- -- 54
2020-11-14 16:00:00 20.8 18 Sudeste 35 Sur 0 -- -- 51
2020-11-14 15:00:00 20.2 25 Sur 47 Sur 0 -- -- 52
2020-11-14 14:00:00 20.7 26 Sur 59 Sudeste 0 -- -- 52
2020-11-14 13:00:00 18.1 33 Sur 55 Sur 0 -- -- 57
2020-11-14 12:00:00 17.5 29 Sur 71 Sur 0 -- -- 58
2020-11-14 11:00:00 18 39 Sur 73 Sur 0 -- -- 57
2020-11-14 10:00:00 16.9 36 Sur 58 Sur 0 -- -- 58
2020-11-14 09:00:00 16.4 28 Sur 61 Sudoeste 0 -- -- 60
2020-11-14 08:00:00 15.6 37 Sur 65 Sudoeste 0 -- -- 60
2020-11-14 07:00:00 15.8 36 Sur 59 Sur 0 -- -- 59
2020-11-14 06:00:00 15.8 30 Sur 63 Sur 0 -- -- 60
2020-11-14 05:00:00 15.8 31 Sur 59 Sur 0 -- -- 61
2020-11-14 04:00:00 15.6 21 Sur 44 Sudoeste 0 -- -- 61
2020-11-14 03:00:00 15.6 15 Sur 53 Sur 0 -- -- 61
2020-11-14 02:00:00 15.7 28 Sur 50 Sur 0 -- -- 61
2020-11-14 01:00:00 16.1 28 Sur 50 Sur 0 -- -- 60
2020-11-14 00:00:00 16.3 27 Sur 52 Sur 0 -- -- 59
2020-11-13 23:00:00 16.2 21 Sur 40 Sur 0 -- -- 59
2020-11-13 22:00:00 15.9 17 Sur 23 Sur 0 -- -- 60
2020-11-13 21:00:00 15.5 8 Sudeste 16 Sur 0 -- -- 62
2020-11-13 20:00:00 16.2 13 Sur 27 Sudeste 0 -- -- 61
2020-11-13 19:00:00 15.9 10 Sur 18 Sur 0 -- -- 64
2020-11-13 18:00:00 17.4 8 Sur 13 Sur 0 -- -- 59
2020-11-13 17:00:00 21.2 5 Sur 16 Sur 0 -- -- 50
2020-11-13 16:00:00 21 9 Sur 22 Sur 0 -- -- 48
2020-11-13 15:00:00 22.5 13 Sur 25 Sur 0 -- -- 47
2020-11-13 14:00:00 22.5 14 Sur 27 Sur 0 -- -- 48
2020-11-13 13:00:00 21.8 15 Sur 31 Sur 0 -- -- 51
2020-11-13 12:00:00 20.6 19 Sur 32 Sur 0 -- -- 53
2020-11-13 11:00:00 18.4 19 Sur 35 Sur 0 -- -- 58
2020-11-13 10:00:00 17.3 21 Sur 39 Sur 0 -- -- 58
2020-11-13 09:00:00 17.7 21 Sur 37 Sur 0 -- -- 56
2020-11-13 08:00:00 16.8 21 Sur 36 Sur 0 -- -- 56
2020-11-13 07:00:00 17 27 Sur 53 Sur 0 -- -- 54
2020-11-13 06:00:00 17.1 30 Sur 53 Sur 0 -- -- 52
2020-11-13 05:00:00 17.4 30 Sur 47 Sur 0 -- -- 50
2020-11-13 04:00:00 17.3 18 Sur 44 Sur 0 -- -- 49
2020-11-13 03:00:00 17.6 19 Sur 39 Sur 0 -- -- 50
2020-11-13 02:00:00 17.4 13 Sur 31 Sur 0 -- -- 51
2020-11-13 01:00:00 17.3 9 Sudeste 30 Sur 0 -- -- 51
2020-11-13 00:00:00 17.1 9 Sur 30 Sudoeste 0 -- -- 51
2020-11-12 23:00:00 17.3 15 Sur 33 Sur 0 -- -- 51
2020-11-12 22:00:00 17.5 21 Sur 41 Sur 0 -- -- 52
2020-11-12 21:00:00 17.3 18 Sur 32 Sur 0 -- -- 53
2020-11-12 20:00:00 16 13 Sur 23 Sur 0 -- -- 62
2020-11-12 19:00:00 14.7 6 Sur 12 Sur 0 -- -- 73
2020-11-12 18:00:00 16.2 0 Calma 9 Noroeste 0 -- -- 68
2020-11-12 17:00:00 18.4 5 Nordeste 16 Este 0 -- -- 61
2020-11-12 16:00:00 19.2 10 Este 15 Nordeste 0 -- -- 56
2020-11-12 15:00:00 19.7 5 Nordeste 21 Nordeste 0 -- -- 63
2020-11-12 14:00:00 18.4 15 Nordeste 21 Nordeste 0 -- -- 62
2020-11-12 13:00:00 20.1 7 Nordeste 15 Este 0 -- -- 64
2020-11-12 12:00:00 18.9 2 Noroeste 12 Sur 0 -- -- 57
2020-11-12 11:00:00 19.7 9 Sur 22 Sur 0 -- -- 58
2020-11-12 10:00:00 17.2 8 Sur 19 Sudoeste 0 -- -- 65
2020-11-12 09:00:00 15.1 10 Sur 19 Sur 0 -- -- 65
2020-11-12 08:00:00 14.7 14 Sur 22 Sur 0 -- -- 64
2020-11-12 07:00:00 13.6 15 Sur 21 Sudoeste 0 -- -- 65
2020-11-12 06:00:00 14.5 14 Sur 22 Sur 0 -- -- 61
2020-11-12 05:00:00 14.6 13 Sur 20 Sur 0 -- -- 59
2020-11-12 04:00:00 15.2 13 Sur 23 Sudoeste 0 -- -- 55
2020-11-12 03:00:00 16 14 Sudoeste 20 Sudoeste 0 -- -- 52
2020-11-12 02:00:00 16.4 10 Sur 26 Sur 0 -- -- 52
2020-11-12 01:00:00 16.9 14 Sur 29 Sudeste 0 -- -- 51
2020-11-12 00:00:00 17.1 21 Sur 33 Sur 0 -- -- 50
2020-11-11 23:00:00 17.1 23 Sur 37 Sur 0 -- -- 50
2020-11-11 22:00:00 17.2 17 Sur 30 Sur 0 -- -- 49
2020-11-11 21:00:00 17.3 17 Sur 33 Sur 0 -- -- 49
2020-11-11 20:00:00 17.4 16 Sur 30 Sudoeste 0 -- -- 49
2020-11-11 19:00:00 17.7 8 Sur 24 Sudoeste 0 -- -- 47
2020-11-11 18:00:00 18.1 9 Sur 33 Sudoeste 0 -- -- 47
2020-11-11 17:00:00 19.6 17 Sur 34 Sudoeste 0 -- -- 45
2020-11-11 16:00:00 20.2 9 Sudoeste 35 Sur 0 -- -- 44
2020-11-11 15:00:00 21 14 Sur 36 Sur 0 -- -- 45
2020-11-11 14:00:00 20.2 17 Sur 44 Sur 0 -- -- 48
2020-11-11 13:00:00 19 22 Sur 48 Sur 0 -- -- 48
2020-11-11 12:00:00 19.5 26 Sur 50 Sur 0 -- -- 49
2020-11-11 11:00:00 17.6 32 Sur 49 Sudeste 0 -- -- 55
2020-11-11 10:00:00 16.6 27 Sur 48 Sur 0 -- -- 62
2020-11-11 09:00:00 14.9 25 Sur 46 Sur 0 -- -- 70
2020-11-11 08:00:00 13.8 17 Sur 37 Sudeste 0 -- -- 74
2020-11-11 07:00:00 12.9 24 Sur 34 Sur 0 -- -- 88
2020-11-11 06:00:00 11.2 11 Sudoeste 15 Sudoeste 0 -- -- 98
2020-11-11 05:00:00 10.8 12 Sur 21 Sur 0 -- -- 98
2020-11-11 04:00:00 10.8 13 Sur 21 Sur 0 -- -- 98
2020-11-11 03:00:00 10.5 11 Sur 19 Sur 0 -- -- 98
2020-11-11 02:00:00 10.7 11 Sur 15 Sur 0 -- -- 98
2020-11-11 01:00:00 10.9 12 Sur 17 Sur 0 -- -- 98
2020-11-11 00:00:00 10.9 10 Sur 14 Sur 0 -- -- 98
2020-11-10 23:00:00 11 12 Sur 15 Sur 0 -- -- 97
2020-11-10 22:00:00 11.3 12 Sur 14 Sur 0 -- -- 97
2020-11-10 21:00:00 11.7 9 Sur 14 Sur 0.1 -- -- 95
2020-11-10 20:00:00 12.4 9 Sur 13 Sur 0 -- -- 94
2020-11-10 19:00:00 13.2 8 Sur 12 Sur 0 -- -- 92
2020-11-10 18:00:00 14.2 0 Calma 6 Este 0 -- -- 88
2020-11-10 17:00:00 15.1 5 Este 9 Sudeste 0 -- -- 86
2020-11-10 16:00:00 15.7 6 Este 11 Nordeste 0 -- -- 85
2020-11-10 15:00:00 16.1 7 Nordeste 10 Nordeste 0 -- -- 84
2020-11-10 14:00:00 16.6 0 Calma -- -- 0 -- -- 90
2020-11-10 13:00:00 15.7 0 Calma 11 Noroeste 0 -- -- 97
2020-11-10 12:00:00 15.2 7 Noroeste 19 Norte 0 -- -- 98
2020-11-10 11:00:00 14.8 5 Sur 14 Sudoeste 0.2 -- -- 98
2020-11-10 10:00:00 13.8 10 Sur 14 Sudoeste 0.1 -- -- 98
2020-11-10 09:00:00 13.4 7 Sur 11 Sudeste 3.6 -- -- 98
2020-11-10 08:00:00 13.3 7 Sur 14 Sur 4.6 -- -- 97
2020-11-10 07:00:00 13.5 6 Sur 21 Noroeste 6.9 -- -- 95
2020-11-10 06:00:00 14.3 10 Oeste 31 Noroeste 0 -- -- 91
2020-11-10 05:00:00 12.9 12 Sur 15 Sur 0 -- -- 90
2020-11-10 04:00:00 12.8 12 Sur 16 Sur 0 -- -- 91
2020-11-10 03:00:00 12.4 10 Sur 16 Sudoeste 0 -- -- 91
2020-11-10 02:00:00 12 12 Sur 16 Sur 0 -- -- 91
2020-11-10 01:00:00 12 13 Sur 15 Sur 0 -- -- 91
2020-11-10 00:00:00 11.9 13 Sur 15 Sur 0 -- -- 90
2020-11-09 23:00:00 12.5 12 Sur 14 Sur 0 -- -- 88
2020-11-09 22:00:00 12.8 12 Sur 15 Sur 0 -- -- 88
2020-11-09 21:00:00 13.3 12 Sur 14 Sur 0 -- -- 85
2020-11-09 20:00:00 14.2 10 Sur 13 Sudoeste 0 -- -- 79
2020-11-09 19:00:00 15.6 7 Sur 10 Sudoeste 0 -- -- 72
2020-11-09 18:00:00 17.3 6 Oeste 14 Oeste 0 -- -- 66
2020-11-09 17:00:00 19.8 0 Calma 15 Nordeste 0 -- -- 54
2020-11-09 16:00:00 19.9 7 Nordeste 12 Nordeste 0 -- -- 54
2020-11-09 15:00:00 22.9 3 Oeste 21 Sudoeste 0 -- -- 47
2020-11-09 14:00:00 22.4 8 Sudoeste 32 Sudoeste 0 -- -- 47
2020-11-09 13:00:00 22.7 17 Sur 34 Sudoeste 0 -- -- 48
2020-11-09 12:00:00 20.5 20 Sur 39 Sudeste 0 -- -- 53
2020-11-09 11:00:00 18.3 16 Sur 40 Sur 0 -- -- 57
2020-11-09 10:00:00 17.8 27 Sur 59 Sur 0 -- -- 57
2020-11-09 09:00:00 17.4 18 Sur 32 Sur 0 -- -- 57
2020-11-09 08:00:00 17.3 19 Sur 48 Sudoeste 0 -- -- 56
2020-11-09 07:00:00 17.5 22 Sur 37 Sur 0 -- -- 55
2020-11-09 06:00:00 17.5 22 Sur 36 Sur 0 -- -- 55
2020-11-09 05:00:00 17.6 14 Sur 35 Sur 0 -- -- 55
2020-11-09 04:00:00 17.3 18 Sur 33 Sur 0 -- -- 56
2020-11-09 03:00:00 17.7 14 Sur 36 Sur 0 -- -- 54
2020-11-09 02:00:00 18.4 20 Sur 47 Sur 0 -- -- 53
2020-11-09 01:00:00 18.4 23 Sur 50 Sur 0 -- -- 53
2020-11-09 00:00:00 18.2 24 Sur 50 Sur 0 -- -- 53
2020-11-08 23:00:00 18.3 20 Sur 39 Sudoeste 0 -- -- 53
2020-11-08 22:00:00 18.5 27 Sur 46 Sur 0 -- -- 53
2020-11-08 21:00:00 18.9 18 Sur 49 Sur 0 -- -- 53
2020-11-08 20:00:00 18.9 28 Sur 45 Sur 0 -- -- 54
2020-11-08 19:00:00 18.7 21 Sur 36 Sur 0 -- -- 55
2020-11-08 18:00:00 18.8 14 Sur 33 Sudoeste 0 -- -- 53
2020-11-08 17:00:00 19.6 14 Sur 32 Sur 0 -- -- 52
2020-11-08 16:00:00 20.6 20 Sur 36 Sudoeste 0 -- -- 50
2020-11-08 15:00:00 22.1 15 Sur 46 Sur 0 -- -- 47
2020-11-08 14:00:00 22.1 21 Sur 41 Sudoeste 0 -- -- 48
2020-11-08 13:00:00 22.5 20 Sur 77 Sur 0 -- -- 48
2020-11-08 12:00:00 21.4 28 Sur 51 Sur 0 -- -- 49
2020-11-08 11:00:00 20.3 32 Sur 54 Sudoeste 0 -- -- 51
2020-11-08 10:00:00 18.6 24 Sur 49 Sur 0 -- -- 54
2020-11-08 09:00:00 17.9 23 Sur 45 Sur 0 -- -- 54
2020-11-08 08:00:00 18 25 Sur 52 Sur 0 -- -- 55
2020-11-08 07:00:00 17.8 29 Sur 51 Sur 0 -- -- 55
2020-11-08 06:00:00 18.1 31 Sur 49 Sur 0 -- -- 55
2020-11-08 05:00:00 17.5 26 Sur 45 Sur 0 -- -- 56
2020-11-08 04:00:00 17.7 27 Sur 40 Sur 0 -- -- 57
2020-11-08 03:00:00 17.3 26 Sur 42 Sur 0 -- -- 59
2020-11-08 02:00:00 18.2 27 Sur 48 Sur 0 -- -- 58
2020-11-08 01:00:00 18.3 28 Sur 47 Sudeste 0 -- -- 57
2020-11-08 00:00:00 18 23 Sur 35 Sur 0 -- -- 58
2020-11-07 23:00:00 18.2 23 Sur 35 Sur 0 -- -- 59
2020-11-07 22:00:00 18.4 23 Sur 35 Sur 0 -- -- 60
2020-11-07 21:00:00 18.1 19 Sur 38 Sur 0.1 -- -- 61
2020-11-07 20:00:00 18 19 Sur 38 Sur 0 -- -- 62
2020-11-07 19:00:00 18.3 24 Sur 43 Sudoeste 0 -- -- 61
2020-11-07 18:00:00 18.5 13 Sur 27 Sur 0 -- -- 63
2020-11-07 17:00:00 18.8 18 Sur 41 Sudoeste 0 -- -- 65
2020-11-07 16:00:00 18.8 21 Sur 45 Sur 0 -- -- 65
2020-11-07 15:00:00 18.7 19 Sur 42 Sur 0 -- -- 66
2020-11-07 14:00:00 18.8 21 Sur 38 Sudoeste 0 -- -- 67
2020-11-07 13:00:00 18.6 18 Sur 40 Sudoeste 0 -- -- 68
2020-11-07 12:00:00 17.2 10 Sur 26 Sur 0 -- -- 81
2020-11-07 11:00:00 16.5 4 Sur 17 Sur 0 -- -- 93
2020-11-07 10:00:00 16.5 6 Nordeste 21 Sudeste 0 -- -- 94
2020-11-07 09:00:00 17.1 0 Calma 11 Oeste 0.4 -- -- 92
2020-11-07 08:00:00 18 0 Calma 15 Sudoeste 2.8 -- -- 81
2020-11-07 07:00:00 20.3 8 Sur 21 Sudeste 0 -- -- 61
2020-11-07 06:00:00 20.5 2 Sudeste 22 Sur 0 -- -- 58
2020-11-07 05:00:00 21.3 14 Sudeste 38 Sur 0 -- -- 55
2020-11-07 04:00:00 21.5 13 Sur 49 Sur 0 -- -- 54
2020-11-07 03:00:00 21.6 26 Sur 50 Sur 0 -- -- 54
2020-11-07 02:00:00 21.5 13 Sudeste 54 Sur 0 -- -- 54
2020-11-07 01:00:00 21.4 31 Sur 69 Sur 0 -- -- 54
2020-11-07 00:00:00 21.5 21 Sur 75 Sur 0 -- -- 54
2020-11-06 23:00:00 21.6 8 Sudeste 69 Sur 0 -- -- 53
2020-11-06 22:00:00 22.3 42 Sur 73 Sudeste 0 -- -- 51
2020-11-06 21:00:00 22.2 39 Sur 66 Sudeste 0 -- -- 51
2020-11-06 20:00:00 22.3 35 Sudeste 73 Sur 0 -- -- 51
2020-11-06 19:00:00 21.7 24 Sudeste 55 Sudeste 0 -- -- 53
2020-11-06 18:00:00 21.4 27 Sudeste 47 Sudeste 0 -- -- 54
2020-11-06 17:00:00 21.4 20 Sudeste 53 Sur 0 -- -- 54
2020-11-06 16:00:00 21.8 30 Sur 59 Sudeste 0 -- -- 52
2020-11-06 15:00:00 21.9 21 Sudeste 42 Sudeste 0 -- -- 53
2020-11-06 14:00:00 22.2 16 Sudeste 54 Sur 0 -- -- 54
2020-11-06 13:00:00 21.2 27 Sur 50 Sur 0 -- -- 56
2020-11-06 12:00:00 21.5 22 Sudeste 53 Sudeste 0 -- -- 56
2020-11-06 11:00:00 21 14 Sur 52 Sur 0 -- -- 57
2020-11-06 10:00:00 20 12 Sudeste 35 Sur 0 -- -- 59
2020-11-06 09:00:00 20 22 Sur 67 Sur 0 -- -- 58
2020-11-06 08:00:00 19.6 37 Sur 62 Sur 0 -- -- 59
2020-11-06 07:00:00 19 32 Sur 55 Sur 0 -- -- 62
2020-11-06 06:00:00 17.6 4 Este 31 Sudeste 0 -- -- 66
2020-11-06 05:00:00 18.2 17 Sur 45 Sur 0 -- -- 65
2020-11-06 04:00:00 16.7 14 Sur 25 Sudeste 0 -- -- 71
2020-11-06 03:00:00 16.7 11 Sur 36 Sudeste 0 -- -- 67
2020-11-06 02:00:00 17.3 22 Sudeste 43 Este 0 -- -- 68
2020-11-06 01:00:00 12.9 14 Sur 23 Sudeste 0 -- -- 93
2020-11-06 00:00:00 11.7 9 Sur 17 Sudoeste 0 -- -- 94
2020-11-05 23:00:00 11.3 14 Sur 17 Sur 0 -- -- 94
2020-11-05 22:00:00 11.2 10 Sur 15 Sudoeste 0 -- -- 93
2020-11-05 21:00:00 11.1 9 Sur 12 Sudoeste 0.1 -- -- 91
2020-11-05 20:00:00 11.6 10 Sur 14 Sudoeste 0 -- -- 89
2020-11-05 19:00:00 12.4 10 Sur 13 Sudoeste 0 -- -- 84
2020-11-05 18:00:00 13.4 7 Sur 11 Sur 0 -- -- 77
2020-11-05 17:00:00 15.2 0 Calma 10 Sudeste 0 -- -- 68
2020-11-05 16:00:00 16.5 3 Este 14 Nordeste 0 -- -- 64
2020-11-05 15:00:00 17.4 2 Este 20 Nordeste 0 -- -- 62
2020-11-05 14:00:00 14.7 14 Nordeste 24 Nordeste 0 -- -- 68
2020-11-05 13:00:00 13.9 15 Nordeste 22 Nordeste 0 -- -- 68
2020-11-05 12:00:00 15.7 8 Nordeste 12 Este 0 -- -- 69
2020-11-05 11:00:00 13.2 0 Calma 11 Sur 0 -- -- 75
2020-11-05 10:00:00 11.5 10 Sur 13 Sur 0 -- -- 90
2020-11-05 09:00:00 8.9 10 Sur 15 Sur 0 -- -- 95
2020-11-05 08:00:00 7.3 12 Sur 15 Sur 0 -- -- 95
2020-11-05 07:00:00 7.4 12 Sur 14 Sur 0 -- -- 93
2020-11-05 06:00:00 8 12 Sur 15 Sur 0 -- -- 92
2020-11-05 05:00:00 8.6 8 Sur 10 Sur 0 -- -- 89
2020-11-05 04:00:00 9.3 7 Sur 10 Sur 0 -- -- 86
2020-11-05 03:00:00 9.4 6 Sur 15 Sur 0 -- -- 84
2020-11-05 02:00:00 9.4 10 Sur 14 Sur 0 -- -- 82
2020-11-05 01:00:00 9.5 12 Sur 15 Sudeste 0 -- -- 77
2020-11-05 00:00:00 9.8 9 Sur 26 Sudeste 0 -- -- 72
2020-11-04 23:00:00 11.4 13 Este 34 Sudeste 0 -- -- 68
2020-11-04 22:00:00 11.7 17 Este 37 Este 0 -- -- 67
2020-11-04 21:00:00 12 11 Este 35 Nordeste 0.1 -- -- 66
2020-11-04 20:00:00 12.2 16 Este 32 Este 0 -- -- 66
2020-11-04 19:00:00 12.1 10 Este 30 Nordeste 0 -- -- 68
2020-11-04 18:00:00 12.1 18 Este 31 Este 0 -- -- 68
2020-11-04 17:00:00 12.2 16 Este 29 Este 0 -- -- 69
2020-11-04 16:00:00 12.7 18 Este 31 Nordeste 0 -- -- 69
2020-11-04 15:00:00 12.9 15 Este 32 Este 0 -- -- 72
2020-11-04 14:00:00 13.1 13 Este 30 Nordeste 0 -- -- 71
2020-11-04 13:00:00 13.2 14 Nordeste 30 Nordeste 0 -- -- 70
2020-11-04 12:00:00 13.8 14 Nordeste 27 Norte 0 -- -- 71
2020-11-04 11:00:00 13 11 Nordeste 18 Nordeste 0 -- -- 88
2020-11-04 10:00:00 11.9 4 Sur 13 Sur 0 -- -- 99
2020-11-04 09:00:00 9.8 11 Sur 19 Sudeste 0 -- -- 99
2020-11-04 08:00:00 9.4 11 Sur 16 Sur 0.2 -- -- 99
2020-11-04 07:00:00 9.2 10 Sur 14 Sur 0.4 -- -- 98
2020-11-04 06:00:00 9.3 6 Sur 15 Sur 0.9 -- -- 98
2020-11-04 05:00:00 9.1 8 Sur 21 Sudeste 1.5 -- -- 98
2020-11-04 04:00:00 9.2 8 Sur 13 Sur 0 -- -- 97
2020-11-04 03:00:00 9.5 9 Sur 15 Sur 1.1 -- -- 97
2020-11-04 02:00:00 9.7 8 Sur 15 Sur 0 -- -- 96
2020-11-04 01:00:00 10 10 Sur 17 Sur 0.6 -- -- 94
2020-11-04 00:00:00 10.2 2 Sudoeste 13 Sudoeste 0.3 -- -- 93
2020-11-03 23:00:00 10.2 9 Sur 13 Sudoeste 0 -- -- 91
2020-11-03 22:00:00 11 8 Sur 14 Sur 0.1 -- -- 86
2020-11-03 21:00:00 12.1 2 Nordeste 44 Noroeste 0.1 -- -- 78
2020-11-03 20:00:00 12.8 17 Noroeste 43 Noroeste 0 -- -- 72
2020-11-03 19:00:00 13.6 27 Noroeste 46 Noroeste 0 -- -- 69
2020-11-03 18:00:00 13.9 28 Noroeste 48 Noroeste 0.2 -- -- 71
2020-11-03 17:00:00 14 23 Noroeste 50 Noroeste 0 -- -- 71
2020-11-03 16:00:00 13.3 39 Noroeste 52 Noroeste 0.1 -- -- 81
2020-11-03 15:00:00 13.3 14 Oeste 50 Noroeste 0.1 -- -- 84
2020-11-03 14:00:00 13.4 22 Norte 41 Noroeste 0.3 -- -- 91
2020-11-03 13:00:00 13.1 34 Noroeste 47 Noroeste 0.1 -- -- 93
2020-11-03 12:00:00 13.8 28 Noroeste 45 Noroeste 0.3 -- -- 91
2020-11-03 11:00:00 14 0 Calma 15 Noroeste 0 -- -- 98
2020-11-03 10:00:00 13 7 Sur 11 Sur 0.1 -- -- 99
2020-11-03 09:00:00 12.6 8 Sur 18 Sur 0.2 -- -- 99
2020-11-03 08:00:00 12.2 11 Sur 37 Oeste 0.3 -- -- 99
2020-11-03 07:00:00 12.2 6 Sur 12 Sur 0.1 -- -- 98
2020-11-03 06:00:00 12.1 7 Sur 15 Sudeste 0.3 -- -- 98
2020-11-03 05:00:00 12.5 0 Calma 33 Noroeste 1.4 -- -- 98
2020-11-03 04:00:00 13.6 21 Noroeste 30 Noroeste 2.5 -- -- 97
2020-11-03 03:00:00 13.2 0 Calma 15 Noroeste 3.5 -- -- 94
2020-11-03 02:00:00 13.3 0 Calma 27 Norte 0 -- -- 94
2020-11-03 01:00:00 13.7 2 Noroeste 22 Oeste 0.7 -- -- 95
2020-11-03 00:00:00 14.2 19 Norte 28 Noroeste 0.1 -- -- 91
2020-11-02 23:00:00 14.4 20 Noroeste 33 Noroeste 0 -- -- 91
2020-11-02 22:00:00 14.8 16 Noroeste 39 Noroeste 0 -- -- 90
2020-11-02 21:00:00 15.4 0 Calma 12 Oeste 0 -- -- 81
2020-11-02 20:00:00 15.8 4 Oeste 21 Noroeste 0 -- -- 80
2020-11-02 19:00:00 14.9 6 Oeste 49 Noroeste 0 -- -- 91
2020-11-02 18:00:00 15.4 21 Noroeste 57 Noroeste 0.1 -- -- 95
2020-11-02 17:00:00 15.7 28 Noroeste 62 Noroeste 0.1 -- -- 96
2020-11-02 16:00:00 17.6 45 Noroeste 85 Noroeste 0 -- -- 89
2020-11-02 15:00:00 25.7 14 Sur 24 Sur 0 -- -- 53
2020-11-02 14:00:00 24.6 14 Sur 28 Sudoeste 0 -- -- 54
2020-11-02 13:00:00 24.7 15 Sur 27 Sur 0 -- -- 55
2020-11-02 12:00:00 22.8 15 Sur 32 Sudoeste 0 -- -- 61
2020-11-02 11:00:00 22.3 16 Sur 31 Sudoeste 0 -- -- 61
2020-11-02 10:00:00 22.4 14 Sur 32 Sudoeste 0 -- -- 61
2020-11-02 09:00:00 20.8 17 Sur 38 Sudoeste 0 -- -- 66
2020-11-02 08:00:00 19.7 9 Sur 29 Sudoeste 0 -- -- 67
2020-11-02 07:00:00 20.9 11 Sudoeste 25 Sudoeste 0 -- -- 62
2020-11-02 06:00:00 21.6 10 Sudoeste 26 Sudoeste 0 -- -- 60
2020-11-02 05:00:00 22.1 13 Sudoeste 28 Sur 0 -- -- 58
2020-11-02 04:00:00 21.7 9 Sudoeste 23 Sudoeste 0 -- -- 59
2020-11-02 03:00:00 21.9 11 Sudoeste 22 Sudoeste 0 -- -- 59
2020-11-02 02:00:00 21.6 7 Sudoeste 20 Sur 0 -- -- 60
2020-11-02 01:00:00 21.6 11 Sur 26 Sur 0 -- -- 60
2020-11-02 00:00:00 22.4 17 Sur 36 Sudeste 0 -- -- 58
2020-11-01 23:00:00 22.1 19 Sur 33 Sur 0 -- -- 59
2020-11-01 22:00:00 22.3 18 Sur 29 Sudoeste 0 -- -- 59
2020-11-01 21:00:00 22.3 21 Sur 43 Sur 0 -- -- 59
2020-11-01 20:00:00 22 22 Sur 35 Sur 0 -- -- 61
2020-11-01 19:00:00 21.1 8 Sur 17 Sur 0 -- -- 66
2020-11-01 18:00:00 21.6 4 Sur 17 Sur 0 -- -- 66
2020-11-01 17:00:00 21.3 3 Sur 12 Noroeste 0 -- -- 72
2020-11-01 16:00:00 22.8 2 Oeste 22 Sur 0 -- -- 58
2020-11-01 15:00:00 25.3 4 Sur 30 Sur 0 -- -- 50
2020-11-01 14:00:00 26.6 14 Sur 37 Sudoeste 0 -- -- 49
2020-11-01 13:00:00 25.7 21 Sur 35 Sur 0 -- -- 49
2020-11-01 12:00:00 25.6 21 Sur 35 Sur 0 -- -- 50
2020-11-01 11:00:00 24.3 22 Sur 37 Sur 0 -- -- 53
2020-11-01 10:00:00 21.7 24 Sur 35 Sur 0 -- -- 56
2020-11-01 09:00:00 21.2 22 Sur 35 Sur 0 -- -- 57
2020-11-01 08:00:00 20.6 18 Sur 33 Sur 0 -- -- 57
2020-11-01 07:00:00 20.3 21 Sur 31 Sur 0 -- -- 58
2020-11-01 06:00:00 20.5 14 Sur 33 Sur 0 -- -- 57
2020-11-01 05:00:00 20.5 17 Sur 30 Sur 0 -- -- 58
2020-11-01 04:00:00 20.2 5 Sur 17 Sur 0 -- -- 58
2020-11-01 03:00:00 19.7 6 Sur 12 Sur 0 -- -- 59
2020-11-01 02:00:00 20.2 0 Calma 22 Sur 0 -- -- 58
2020-11-01 01:00:00 20.3 14 Sur 28 Sur 0 -- -- 59
2020-11-01 00:00:00 19.9 13 Sur 24 Sur 0 -- -- 59
2020-10-31 23:00:00 20.5 18 Sur 37 Sur 0 -- -- 58
2020-10-31 22:00:00 20.1 18 Sur 31 Sur 0 -- -- 58
2020-10-31 21:00:00 19.7 17 Sur 27 Sur 0 -- -- 58
2020-10-31 20:00:00 20 14 Sur 22 Sur 0 -- -- 56
2020-10-31 19:00:00 20.5 13 Sur 19 Sur 0 -- -- 53
2020-10-31 18:00:00 22.3 12 Sur 19 Sur 0 -- -- 47
2020-10-31 17:00:00 25.4 10 Sur 21 Sur 0 -- -- 43
2020-10-31 16:00:00 25.5 11 Sur 20 Sudoeste 0 -- -- 41
2020-10-31 15:00:00 26.6 5 Sur 20 Sudoeste 0 -- -- 41
2020-10-31 14:00:00 25 9 Sur 27 Sudoeste 0 -- -- 43
2020-10-31 13:00:00 25.8 12 Sudoeste 57 Sudoeste 0 -- -- 39
2020-10-31 12:00:00 25.3 21 Sur 48 Sur 0 -- -- 41
2020-10-31 11:00:00 24.5 14 Sudoeste 41 Sudoeste 0 -- -- 44
2020-10-31 10:00:00 22.9 22 Sur 38 Sur 0 -- -- 47
2020-10-31 09:00:00 21.1 21 Sur 35 Sudoeste 0 -- -- 52
2020-10-31 08:00:00 18.8 14 Sudoeste 32 Sudoeste 0 -- -- 56
2020-10-31 07:00:00 18 10 Sudoeste 19 Sur 0 -- -- 61
2020-10-31 06:00:00 16.3 8 Sur 20 Sudoeste 0 -- -- 70
2020-10-31 05:00:00 12.9 14 Sur 22 Sur 0.1 -- -- 96
2020-10-31 04:00:00 11.6 13 Sudoeste 17 Sudoeste 0 -- -- 98
2020-10-31 03:00:00 11.4 13 Sur 18 Sudoeste 0 -- -- 98
2020-10-31 02:00:00 11.9 8 Sur 18 Sur 0 -- -- 98
2020-10-31 01:00:00 12.1 3 Sudoeste 12 Sudoeste 0 -- -- 98
2020-10-31 00:00:00 12.7 8 Sur 14 Sur 0 -- -- 98
2020-10-30 23:00:00 13.4 12 Sur 17 Sur 0 -- -- 97
2020-10-30 22:00:00 13.7 8 Sur 11 Sur 0 -- -- 96
2020-10-30 21:00:00 13.7 7 Sur 10 Sur 0 -- -- 95
2020-10-30 20:00:00 14.3 6 Sur 10 Sudeste 0 -- -- 93
2020-10-30 19:00:00 14.5 3 Sur 9 Sur 0 -- -- 90
2020-10-30 18:00:00 15.7 0 Calma 0 Calma 0 -- -- 84
2020-10-30 17:00:00 16.8 5 Nordeste 11 Nordeste 0 -- -- 83
2020-10-30 16:00:00 17.9 5 Norte 12 Nordeste 0 -- -- 80
2020-10-30 15:00:00 19.2 4 Norte 11 Noroeste 0 -- -- 77
2020-10-30 14:00:00 19.2 7 Noroeste 12 Norte 0 -- -- 79
2020-10-30 13:00:00 18.3 6 Norte 13 Nordeste 0 -- -- 83
2020-10-30 12:00:00 17.4 6 Norte 13 Noroeste 0 -- -- 84
2020-10-30 11:00:00 17.2 3 Noroeste 8 Noroeste 0 -- -- 84
2020-10-30 10:00:00 15.2 5 Sudoeste 10 Sudoeste 0 -- -- 88
2020-10-30 09:00:00 12.3 8 Sur 12 Sur 0 -- -- 97
2020-10-30 08:00:00 10.1 10 Sur 14 Sudoeste 0 -- -- 97
2020-10-30 07:00:00 10.3 10 Sur 14 Sudoeste 0 -- -- 97
2020-10-30 06:00:00 10.6 8 Sur 12 Sudoeste 0 -- -- 97
2020-10-30 05:00:00 11.1 8 Sur 12 Sudeste 0 -- -- 97
2020-10-30 04:00:00 11 8 Sur 18 Sur 0 -- -- 97
2020-10-30 03:00:00 11.6 11 Sur 19 Sur 0 -- -- 98
2020-10-30 02:00:00 11.1 9 Sur 15 Sur 0 -- -- 97
2020-10-30 01:00:00 11.5 10 Sur 14 Sur 0 -- -- 97
2020-10-30 00:00:00 11.9 8 Sur 14 Sur 0 -- -- 96
2020-10-29 23:00:00 12.3 10 Sur 14 Sur 0 -- -- 95
2020-10-29 22:00:00 12.4 11 Sur 14 Sur 0 -- -- 94
2020-10-29 21:00:00 13 10 Sur 12 Sur 0 -- -- 92
2020-10-29 20:00:00 13.8 9 Sur 11 Sur 0 -- -- 89
2020-10-29 19:00:00 14.9 0 Calma -- -- 0 -- -- 85
2020-10-29 18:00:00 16.7 0 Calma 12 Nordeste 0 -- -- 81
2020-10-29 17:00:00 18 9 Nordeste 19 Nordeste 0 -- -- 75
2020-10-29 16:00:00 18.5 10 Nordeste 24 Este 0 -- -- 69
2020-10-29 15:00:00 19.9 9 Nordeste 19 Nordeste 0 -- -- 67
2020-10-29 14:00:00 19.8 9 Nordeste 19 Nordeste 0 -- -- 67
2020-10-29 13:00:00 18.6 12 Nordeste 19 Nordeste 0 -- -- 73
2020-10-29 12:00:00 18.7 9 Norte 14 Norte 0 -- -- 70
2020-10-29 11:00:00 18.6 5 Sur 12 Sur 0 -- -- 69
2020-10-29 10:00:00 16.1 10 Sur 16 Sur 0 -- -- 80
2020-10-29 09:00:00 12.8 13 Sur 17 Sur 0 -- -- 91
2020-10-29 08:00:00 11.3 14 Sur 18 Sur 0 -- -- 90
2020-10-29 07:00:00 11.9 10 Sur 17 Sur 0 -- -- 88
2020-10-29 06:00:00 12.4 12 Sur 15 Sur 0 -- -- 88
2020-10-29 05:00:00 12.8 12 Sur 15 Sur 0 -- -- 88
2020-10-29 04:00:00 12.8 10 Sur 13 Sur 0 -- -- 88
2020-10-29 03:00:00 12.8 9 Sur 14 Sur 0 -- -- 90
2020-10-29 02:00:00 12.5 10 Sur 17 Sur 0 -- -- 91
2020-10-29 01:00:00 11.9 13 Sur 16 Sur 0 -- -- 92
2020-10-29 00:00:00 11.9 12 Sur 15 Sur 0 -- -- 91
2020-10-28 23:00:00 12.1 10 Sur 14 Sur 0 -- -- 91
2020-10-28 22:00:00 12.9 12 Sur 14 Sur 0 -- -- 88
2020-10-28 21:00:00 13.9 2 Sur 11 Sur 0 -- -- 84
2020-10-28 20:00:00 15.2 0 Calma -- -- 0 -- -- 84
2020-10-28 19:00:00 15.8 0 Calma -- -- 0 -- -- 80
2020-10-28 18:00:00 16.1 0 Calma -- -- 0 -- -- 75
2020-10-28 17:00:00 16.7 0 Calma 17 Noroeste 0 -- -- 73
2020-10-28 16:00:00 16.9 11 Noroeste 21 Noroeste 0 -- -- 72
2020-10-28 15:00:00 17.4 14 Noroeste 22 Noroeste 0.1 -- -- 71
2020-10-28 14:00:00 17.4 12 Noroeste 22 Noroeste 0 -- -- 69
2020-10-28 13:00:00 17.7 0 Calma 6 Sur 0 -- -- 78
2020-10-28 12:00:00 17 5 Sur 10 Sur 0 -- -- 88
2020-10-28 11:00:00 15.7 0 Calma 9 Sur 0 -- -- 94
2020-10-28 10:00:00 15.2 6 Sur 11 Sur 0 -- -- 95
2020-10-28 09:00:00 14.7 2 Sudoeste 12 Sudoeste 0 -- -- 95
2020-10-28 08:00:00 14.7 4 Sur 24 Noroeste 0 -- -- 95
2020-10-28 07:00:00 14.9 18 Noroeste 34 Noroeste 0 -- -- 94
2020-10-28 06:00:00 15 3 Noroeste -- -- -- -- -- 94
2020-10-28 05:00:00 15.7 8 Noroeste 15 Noroeste 0 -- -- 94
2020-10-28 04:00:00 15.6 5 Noroeste 19 Noroeste 0 -- -- 93
2020-10-28 03:00:00 15.9 14 Noroeste 19 Noroeste 0 -- -- 91
2020-10-28 02:00:00 16.6 9 Noroeste 21 Noroeste 0 -- -- 78
2020-10-28 01:00:00 16.4 6 Sur 19 Sudoeste 0 -- -- 68
2020-10-28 00:00:00 17 13 Sur 28 Sur 0 -- -- 65